createdAt,value
2023-04-18T00:01:30.436Z,59
2023-04-18T00:04:19.850Z,59
2023-04-18T00:07:07.875Z,59.3
2023-04-18T00:09:55.759Z,59.4
2023-04-18T00:12:43.366Z,59.5
2023-04-18T00:15:31.018Z,59.7
2023-04-18T00:18:18.872Z,60.2
2023-04-18T00:21:06.566Z,60.5
2023-04-18T00:23:54.218Z,60.6
2023-04-18T00:26:41.936Z,60.8
2023-04-18T00:29:29.573Z,61.9
2023-04-18T00:32:17.211Z,61.9
2023-04-18T00:35:05.165Z,62
2023-04-18T00:37:52.828Z,62.6
2023-04-18T00:40:40.439Z,62.6
2023-04-18T00:43:28.132Z,63.2
2023-04-18T00:46:16.036Z,63
2023-04-18T00:49:03.754Z,62.9
2023-04-18T00:51:51.721Z,63.1
2023-04-18T00:54:39.536Z,63.4
2023-04-18T00:57:27.234Z,63.9
2023-04-18T01:00:15.046Z,64.4
2023-04-18T01:03:03.601Z,64.1
2023-04-18T01:05:51.529Z,64.6
2023-04-18T01:08:39.355Z,64.8
2023-04-18T01:11:27.092Z,65.3
2023-04-18T01:14:15.282Z,66.1
2023-04-18T01:17:03.058Z,66.2
2023-04-18T01:19:50.677Z,66.1
2023-04-18T01:22:38.327Z,66.1
2023-04-18T01:25:25.934Z,66.6
2023-04-18T01:28:13.693Z,67
2023-04-18T01:31:01.468Z,67
2023-04-18T01:33:49.302Z,67.3
2023-04-18T01:36:36.936Z,67.2
2023-04-18T01:39:24.694Z,68
2023-04-18T01:42:12.476Z,68.4
2023-04-18T01:45:00.252Z,68.7
2023-04-18T01:47:47.942Z,68.4
2023-04-18T01:50:35.756Z,68.9
2023-04-18T01:53:23.302Z,69.3
2023-04-18T01:56:10.928Z,69.5
2023-04-18T01:59:00.608Z,69.8
2023-04-18T02:01:48.641Z,69.7
2023-04-18T02:04:36.506Z,69.7
2023-04-18T02:07:24.418Z,69.8
2023-04-18T02:10:12.113Z,69.7
2023-04-18T02:12:59.959Z,69.9
2023-04-18T02:15:47.774Z,70.3
2023-04-18T02:18:35.835Z,70.5
2023-04-18T02:21:23.465Z,70.9
2023-04-18T02:24:11.413Z,70.9
2023-04-18T02:26:59.234Z,70.7
2023-04-18T02:29:46.966Z,70.9
2023-04-18T02:32:36.072Z,71.6
2023-04-18T02:35:23.839Z,71.6
2023-04-18T02:38:11.522Z,72
2023-04-18T02:40:59.360Z,71.5
2023-04-18T02:43:47.168Z,72.2
2023-04-18T02:46:34.893Z,72.5
2023-04-18T02:49:22.703Z,72.8
2023-04-18T02:52:10.492Z,72.2
2023-04-18T02:54:58.178Z,72.5
2023-04-18T02:57:45.868Z,72.5
2023-04-18T03:00:33.501Z,72.7
2023-04-18T03:03:21.427Z,73.2
2023-04-18T03:06:09.318Z,73
2023-04-18T03:08:57.157Z,73.4
2023-04-18T03:11:44.851Z,73.7
2023-04-18T03:14:32.642Z,73.9
2023-04-18T03:17:23.641Z,74
2023-04-18T03:20:11.410Z,73.9
2023-04-18T03:22:59.267Z,74
2023-04-18T03:25:47.129Z,74.1
2023-04-18T03:28:34.774Z,73.7
2023-04-18T03:31:22.861Z,73.8
2023-04-18T03:34:10.671Z,73.9
2023-04-18T03:36:58.517Z,73.8
2023-04-18T03:39:46.380Z,73.8
2023-04-18T03:42:34.190Z,74.4
2023-04-18T03:45:21.886Z,74.7
2023-04-18T03:48:09.903Z,75.5
2023-04-18T03:50:57.649Z,75.7
2023-04-18T03:53:45.373Z,75.5
2023-04-18T03:56:33.196Z,75.4
2023-04-18T03:59:20.939Z,75.6
2023-04-18T04:02:08.961Z,75.9
2023-04-18T04:04:56.963Z,76.2
2023-04-18T04:07:44.903Z,76.3
2023-04-18T04:10:32.688Z,76.6
2023-04-18T04:13:20.606Z,76.3
2023-04-18T04:16:08.385Z,76.3
2023-04-18T04:18:56.139Z,76.7
2023-04-18T04:21:43.822Z,76.7
2023-04-18T04:24:31.478Z,77.1
2023-04-18T04:27:19.361Z,77.1
2023-04-18T04:30:07.399Z,77.2
2023-04-18T04:32:55.278Z,77.7
2023-04-18T04:35:43.244Z,77.5
2023-04-18T04:38:31.437Z,77.5
2023-04-18T04:41:19.184Z,77.6
2023-04-18T04:44:07.014Z,77.9
2023-04-18T04:46:55.061Z,77.7
2023-04-18T04:49:44.798Z,77.6
2023-04-18T04:52:32.741Z,77.7
2023-04-18T04:55:20.540Z,77.7
2023-04-18T04:58:08.326Z,78.4
2023-04-18T05:00:56.118Z,78.4
2023-04-18T05:03:44.511Z,78.4
2023-04-18T05:06:32.133Z,78.2
2023-04-18T05:09:19.968Z,78.1
2023-04-18T05:12:07.749Z,78.2
2023-04-18T05:14:55.640Z,78
2023-04-18T05:17:43.561Z,78
2023-04-18T05:20:31.684Z,78.1
2023-04-18T05:23:19.346Z,78.2
2023-04-18T05:26:07.054Z,77.9
2023-04-18T05:28:54.702Z,77.7
2023-04-18T05:31:42.540Z,78.1
2023-04-18T05:34:30.219Z,77.8
2023-04-18T05:37:18.161Z,77.6
2023-04-18T05:40:05.942Z,77.7
2023-04-18T05:42:53.787Z,77.7
2023-04-18T05:45:41.481Z,77.7
2023-04-18T05:48:29.346Z,77.7
2023-04-18T05:51:17.081Z,77.9
2023-04-18T05:54:04.987Z,77.8
2023-04-18T05:56:52.861Z,77.5
2023-04-18T05:59:40.597Z,77.3
2023-04-18T06:02:28.796Z,77.1
2023-04-18T06:05:17.303Z,76.9
2023-04-18T06:08:05.141Z,76.7
2023-04-18T06:10:53.098Z,76.2
2023-04-18T06:13:40.899Z,75.8
2023-04-18T06:16:28.864Z,75.2
2023-04-18T06:19:16.621Z,74.9
2023-04-18T06:22:04.586Z,74.5
2023-04-18T06:24:52.368Z,74.3
2023-04-18T06:27:56.560Z,74.4
2023-04-18T06:30:44.451Z,75.1
2023-04-18T06:33:32.394Z,74.4
2023-04-18T06:36:20.088Z,73.3
2023-04-18T06:39:07.877Z,70.7
2023-04-18T06:41:55.608Z,68.1
2023-04-18T06:44:43.502Z,66.3
2023-04-18T06:47:31.294Z,64.2
2023-04-18T06:50:19.210Z,62.9
2023-04-18T06:53:06.940Z,62.2
2023-04-18T06:55:54.569Z,61.2
2023-04-18T06:58:42.452Z,58.9
2023-04-18T07:01:31.149Z,57.8
2023-04-18T07:04:20.027Z,57.3
2023-04-18T07:07:08.215Z,56.8
2023-04-18T07:09:55.843Z,55.6
2023-04-18T07:12:43.632Z,56.5
2023-04-18T07:15:31.256Z,56.2
2023-04-18T07:18:37.080Z,53.3
2023-04-18T07:21:25.303Z,51.2
2023-04-18T07:24:14.043Z,52.1
2023-04-18T07:27:02.092Z,50.3
2023-04-18T07:29:49.826Z,50.2
2023-04-18T07:32:37.491Z,50.3
2023-04-18T07:35:25.897Z,50
2023-04-18T07:38:13.696Z,50.8
2023-04-18T07:41:01.431Z,49.6
2023-04-18T07:43:49.624Z,50.1
2023-04-18T07:46:37.512Z,52.5
2023-04-18T07:49:25.246Z,55.1
2023-04-18T07:52:13.221Z,58
2023-04-18T07:55:00.897Z,59.3
2023-04-18T07:57:48.765Z,60.7
2023-04-18T08:00:36.437Z,61.7
2023-04-18T08:03:24.948Z,62.5
2023-04-18T08:06:12.715Z,62.9
2023-04-18T08:09:00.815Z,63.3
2023-04-18T08:11:48.570Z,63.3
2023-04-18T08:14:36.303Z,63.7
2023-04-18T08:17:24.132Z,63.7
2023-04-18T08:20:11.880Z,64
2023-04-18T08:23:09.674Z,64.3
2023-04-18T08:25:59.563Z,65
2023-04-18T08:28:47.268Z,65.4
2023-04-18T08:31:35.116Z,66.2
2023-04-18T08:34:22.948Z,66.5
2023-04-18T08:37:10.757Z,67.2
2023-04-18T08:39:58.492Z,67.5
2023-04-18T08:42:46.433Z,67.5
2023-04-18T08:45:34.465Z,67.5
2023-04-18T08:48:22.359Z,67.3
2023-04-18T08:51:10.027Z,67
2023-04-18T08:53:57.783Z,67
2023-04-18T08:56:45.539Z,66.8
2023-04-18T08:59:33.405Z,67.2
2023-04-18T09:02:21.535Z,67.5
2023-04-18T09:05:09.456Z,67.2
2023-04-18T09:07:57.302Z,67.1
2023-04-18T09:10:46.954Z,66.8
2023-04-18T09:13:34.882Z,66.8
2023-04-18T09:16:23.183Z,66.5
2023-04-18T09:19:11.195Z,66.8
2023-04-18T09:21:59.031Z,67
2023-04-18T09:24:46.710Z,66.9
2023-04-18T09:27:34.332Z,67.2
2023-04-18T09:30:24.188Z,67
2023-04-18T09:33:12.170Z,66.9
2023-04-18T09:35:59.933Z,67
2023-04-18T09:38:47.776Z,67.2
2023-04-18T09:41:35.504Z,67.6
2023-04-18T09:44:23.389Z,67.8
2023-04-18T09:47:14.366Z,68
2023-04-18T09:50:02.318Z,68.3
2023-04-18T09:52:50.061Z,68.5
2023-04-18T09:55:37.691Z,68.6
2023-04-18T09:58:25.432Z,68.7
2023-04-18T10:01:15.537Z,68.7
2023-04-18T10:04:03.750Z,68.7
2023-04-18T10:06:51.813Z,68.6
2023-04-18T10:09:39.549Z,68.7
2023-04-18T10:12:27.291Z,68.9
2023-04-18T10:15:15.088Z,69.2
2023-04-18T10:18:06.554Z,69
2023-04-18T10:20:54.550Z,68.9
2023-04-18T10:23:42.712Z,68.9
2023-04-18T10:26:30.433Z,68.8
2023-04-18T10:29:18.180Z,68.8
2023-04-18T10:32:06.096Z,69.2
2023-04-18T10:34:53.727Z,69.4
2023-04-18T10:37:41.457Z,69.6
2023-04-18T10:40:29.475Z,69.3
2023-04-18T10:43:17.221Z,68.2
2023-04-18T10:46:05.004Z,67.9
2023-04-18T10:48:52.786Z,67.3
2023-04-18T10:51:40.671Z,66.8
2023-04-18T10:54:28.362Z,67
2023-04-18T10:57:16.462Z,66.7
2023-04-18T11:00:04.283Z,66.3
2023-04-18T11:02:52.777Z,66.2
2023-04-18T11:05:41.106Z,66.2
2023-04-18T11:08:29.582Z,66.5
2023-04-18T11:11:17.410Z,66.8
2023-04-18T11:14:05.509Z,66.5
2023-04-18T11:16:53.486Z,66.2
2023-04-18T11:19:41.374Z,66.2
2023-04-18T11:22:29.129Z,66.6
2023-04-18T11:25:16.901Z,66.7
2023-04-18T11:28:04.683Z,66.2
2023-04-18T11:30:52.604Z,65.7
2023-04-18T11:33:40.443Z,65.5
2023-04-18T11:36:28.434Z,65.4
2023-04-18T11:39:16.267Z,65.4
2023-04-18T11:42:04.146Z,65.4
2023-04-18T11:44:51.908Z,64.7
2023-04-18T11:47:40.066Z,65.1
2023-04-18T11:50:27.735Z,65.3
2023-04-18T11:53:15.644Z,63.6
2023-04-18T11:56:03.429Z,62
2023-04-18T11:58:51.155Z,61
2023-04-18T12:01:38.934Z,61.5
2023-04-18T12:04:28.204Z,61.2
2023-04-18T12:07:15.956Z,60.9
2023-04-18T12:10:03.996Z,61.7
2023-04-18T12:12:51.549Z,62
2023-04-18T12:15:39.538Z,61.6
2023-04-18T12:18:27.395Z,61.9
2023-04-18T12:21:15.407Z,62.6
2023-04-18T12:24:03.124Z,63.1
2023-04-18T12:26:50.853Z,62.7
2023-04-18T12:29:38.661Z,62.5
2023-04-18T12:32:26.660Z,62.6
2023-04-18T12:35:14.330Z,62.7
2023-04-18T12:38:02.427Z,63.9
2023-04-18T12:40:50.112Z,63.7
2023-04-18T12:43:37.964Z,61.5
2023-04-18T12:46:25.713Z,60.5
2023-04-18T12:49:13.550Z,60
2023-04-18T12:52:01.180Z,59.3
2023-04-18T12:54:49.146Z,57.4
2023-04-18T12:57:36.899Z,56
2023-04-18T13:00:24.710Z,55.3
2023-04-18T13:03:13.872Z,54.6
2023-04-18T13:06:02.681Z,55.5
2023-04-18T13:08:50.246Z,55.8
2023-04-18T13:11:38.045Z,55.3
2023-04-18T13:14:25.751Z,55.7
2023-04-18T13:17:13.510Z,57.4
2023-04-18T13:20:01.321Z,56.5
2023-04-18T13:22:49.150Z,54.7
2023-04-18T13:25:36.680Z,54.7
2023-04-18T13:28:24.473Z,55
2023-04-18T13:31:12.298Z,57
2023-04-18T13:34:00.014Z,55.4
2023-04-18T13:36:48.637Z,56.2
2023-04-18T13:39:36.736Z,55.7
2023-04-18T13:42:24.505Z,56.3
2023-04-18T13:45:12.435Z,57.3
2023-04-18T13:48:00.278Z,56.6
2023-04-18T13:50:48.005Z,56.9
2023-04-18T13:53:35.622Z,57.2
2023-04-18T13:56:23.430Z,55.5
2023-04-18T13:59:11.257Z,54.7
2023-04-18T14:01:59.431Z,51.6
2023-04-18T14:04:47.812Z,51.2
2023-04-18T14:07:35.459Z,51.6
2023-04-18T14:10:23.150Z,50.9
2023-04-18T14:13:10.939Z,50
2023-04-18T14:15:58.941Z,48.1
2023-04-18T14:18:46.983Z,48.7
2023-04-18T14:21:34.669Z,48
2023-04-18T14:24:22.468Z,47.3
2023-04-18T14:27:10.139Z,47.9
2023-04-18T14:29:57.887Z,47.9
2023-04-18T14:32:45.505Z,48.4
2023-04-18T14:35:33.284Z,47.9
2023-04-18T14:38:20.861Z,47.6
2023-04-18T14:41:08.719Z,47.1
2023-04-18T14:43:56.400Z,46.6
2023-04-18T14:46:44.346Z,44.9
2023-04-18T14:49:32.013Z,45.8
2023-04-18T14:52:19.928Z,45.9
2023-04-18T14:55:07.547Z,46.4
2023-04-18T14:57:56.760Z,46.4
2023-04-18T15:00:44.540Z,47.3
2023-04-18T15:03:32.886Z,47.1
2023-04-18T15:06:20.866Z,46.7
2023-04-18T15:09:08.662Z,45.8
2023-04-18T15:11:56.270Z,47
2023-04-18T15:14:44.468Z,47.8
2023-04-18T15:17:32.223Z,46.8
2023-04-18T15:20:23.795Z,46.9
2023-04-18T15:23:11.760Z,46.3
2023-04-18T15:25:59.850Z,45.9
2023-04-18T15:28:47.575Z,45.9
2023-04-18T15:31:39.131Z,46.1
2023-04-18T15:34:26.989Z,46.6
2023-04-18T15:37:14.669Z,48
2023-04-18T15:40:02.301Z,49.5
2023-04-18T15:42:50.088Z,47.9
2023-04-18T15:45:37.873Z,47.8
2023-04-18T15:48:25.852Z,48
2023-04-18T15:51:13.541Z,48.5
2023-04-18T15:54:01.342Z,49.6
2023-04-18T15:56:49.050Z,49.6
2023-04-18T15:59:36.973Z,50.1
2023-04-18T16:02:25.264Z,51.8
2023-04-18T16:05:13.319Z,51.5
2023-04-18T16:08:01.004Z,50.5
2023-04-18T16:10:48.733Z,48.7
2023-04-18T16:13:38.514Z,48.6
2023-04-18T16:16:26.785Z,48.4
2023-04-18T16:19:14.548Z,46.6
2023-04-18T16:22:02.229Z,46.3
2023-04-18T16:24:49.898Z,47.9
2023-04-18T16:27:37.739Z,48.7
2023-04-18T16:30:25.447Z,48.8
2023-04-18T16:33:13.745Z,48.4
2023-04-18T16:36:01.495Z,48.1
2023-04-18T16:38:49.119Z,48.3
2023-04-18T16:41:36.810Z,48.2
2023-04-18T16:44:24.485Z,48.8
2023-04-18T16:47:12.268Z,49.6
2023-04-18T16:50:00.250Z,49.9
2023-04-18T16:52:48.146Z,50.7
2023-04-18T16:55:35.731Z,51
2023-04-18T16:58:23.380Z,51.4
2023-04-18T17:01:11.138Z,51.9
2023-04-18T17:03:59.287Z,52.3
2023-04-18T17:06:47.289Z,52.5
2023-04-18T17:09:35.093Z,53.1
2023-04-18T17:12:22.652Z,53.5
2023-04-18T17:15:10.307Z,53.5
2023-04-18T17:17:58.146Z,53.7
2023-04-18T17:20:45.866Z,54
2023-04-18T17:23:33.694Z,54.1
2023-04-18T17:26:21.335Z,54.6
2023-04-18T17:29:09.067Z,54.7
2023-04-18T17:31:56.833Z,54.9
2023-04-18T17:34:44.558Z,55
2023-04-18T17:37:32.172Z,55.2
2023-04-18T17:40:20.224Z,55.7
2023-04-18T17:43:07.889Z,55.8
2023-04-18T17:45:55.755Z,55.8
2023-04-18T17:48:43.524Z,56
2023-04-18T17:51:31.212Z,56.5
2023-04-18T17:54:18.852Z,56.5
2023-04-18T17:57:06.610Z,56.7
2023-04-18T17:59:54.362Z,57.1
2023-04-18T18:02:42.907Z,57.5
2023-04-18T18:05:30.864Z,57.3
2023-04-18T18:08:19.359Z,57.5
2023-04-18T18:11:06.938Z,57.7
2023-04-18T18:13:54.898Z,57.8
2023-04-18T18:16:42.840Z,57.9
2023-04-18T18:19:30.722Z,58
2023-04-18T18:22:18.582Z,58.5
2023-04-18T18:25:06.268Z,59.1
2023-04-18T18:27:53.998Z,59.1
2023-04-18T18:30:41.863Z,59
2023-04-18T18:33:29.536Z,59.6
2023-04-18T18:36:17.111Z,59.7
2023-04-18T18:39:04.771Z,60.2
2023-04-18T18:41:52.406Z,60.6
2023-04-18T18:44:40.083Z,60.5
2023-04-18T18:47:28.119Z,60.6
2023-04-18T18:50:16.011Z,60.9
2023-04-18T18:53:03.992Z,62
2023-04-18T18:55:51.726Z,62
2023-04-18T18:58:39.572Z,62.1
2023-04-18T19:01:27.325Z,62.1
2023-04-18T19:04:15.784Z,62.4
2023-04-18T19:07:03.422Z,62.8
2023-04-18T19:09:51.100Z,62.9
2023-04-18T19:12:38.779Z,63.4
2023-04-18T19:15:26.360Z,63.9
2023-04-18T19:18:14.294Z,63.9
2023-04-18T19:21:02.084Z,64.4
2023-04-18T19:23:49.817Z,64.5
2023-04-18T19:26:37.491Z,64.6
2023-04-18T19:29:25.306Z,64.8
2023-04-18T19:32:13.217Z,64.5
2023-04-18T19:35:00.900Z,64.4
2023-04-18T19:37:48.704Z,64.5
2023-04-18T19:40:36.464Z,64.9
2023-04-18T19:43:24.272Z,64.7
2023-04-18T19:46:12.190Z,65
2023-04-18T19:48:59.865Z,65.2
2023-04-18T19:51:47.416Z,65.3
2023-04-18T19:54:35.466Z,65.5
2023-04-18T19:57:23.216Z,65.9
2023-04-18T20:00:10.989Z,65.8
2023-04-18T20:03:11.327Z,65.9
2023-04-18T20:05:59.817Z,65.8
2023-04-18T20:08:47.493Z,66.6
2023-04-18T20:11:35.303Z,66.5
2023-04-18T20:14:22.888Z,66.6
2023-04-18T20:17:10.850Z,66.8
2023-04-18T20:19:58.404Z,66.7
2023-04-18T20:22:45.966Z,66.8
2023-04-18T20:25:33.842Z,66.8
2023-04-18T20:28:21.744Z,67
2023-04-18T20:31:09.660Z,67.1
2023-04-18T20:33:57.310Z,67.9
2023-04-18T20:36:44.977Z,67.6
2023-04-18T20:39:32.914Z,67.5
2023-04-18T20:42:20.536Z,67.8
2023-04-18T20:45:08.488Z,67.7
2023-04-18T20:47:56.506Z,67.8
2023-04-18T20:50:44.293Z,68
2023-04-18T20:53:32.046Z,68
2023-04-18T20:56:19.919Z,68
2023-04-18T20:59:07.597Z,68.9
2023-04-18T21:01:55.966Z,69.5
2023-04-18T21:04:44.844Z,69.2
2023-04-18T21:07:32.852Z,69.2
2023-04-18T21:10:20.568Z,69.1
2023-04-18T21:13:08.263Z,69.1
2023-04-18T21:15:56.785Z,69
2023-04-18T21:18:44.534Z,69.1
2023-04-18T21:21:32.223Z,69
2023-04-18T21:24:19.923Z,69.2
2023-04-18T21:27:07.524Z,69.1
2023-04-18T21:29:55.220Z,68.9
2023-04-18T21:32:42.891Z,68.9
2023-04-18T21:35:30.746Z,69
2023-04-18T21:38:18.397Z,69
2023-04-18T21:41:06.134Z,68.8
2023-04-18T21:43:53.756Z,68.9
2023-04-18T21:46:41.702Z,68.7
2023-04-18T21:53:19.755Z,69.2
2023-04-18T21:56:07.459Z,69.1
2023-04-18T21:58:55.046Z,69
2023-04-18T22:01:42.933Z,69
2023-04-18T22:04:31.118Z,68.9
2023-04-18T22:07:18.973Z,69
2023-04-18T22:10:06.729Z,69.1
2023-04-18T22:12:54.605Z,69
2023-04-18T22:15:42.374Z,68.9
2023-04-18T22:18:30.287Z,68.9
2023-04-18T22:21:17.868Z,69.2
2023-04-18T22:24:05.700Z,69.3
2023-04-18T22:26:53.517Z,69.2
2023-04-18T22:29:41.263Z,69.3
2023-04-18T22:32:29.077Z,69.3
2023-04-18T22:35:16.886Z,69.4
2023-04-18T22:38:04.568Z,69.6
2023-04-18T22:40:52.397Z,69.5
2023-04-18T22:43:40.363Z,69.6
2023-04-18T22:46:28.292Z,69.6
2023-04-18T22:49:16.037Z,69.6
2023-04-18T22:52:03.789Z,69.8
2023-04-18T22:54:51.580Z,69.6
2023-04-18T22:57:39.350Z,69.7
2023-04-18T23:00:27.272Z,69.6
2023-04-18T23:03:15.692Z,69.7
2023-04-18T23:06:03.447Z,69.7
2023-04-18T23:08:51.236Z,69.8
2023-04-18T23:11:38.945Z,70.2
2023-04-18T23:14:26.669Z,70.3
2023-04-18T23:17:14.444Z,70.3
2023-04-18T23:20:02.491Z,70.5
2023-04-18T23:22:50.249Z,70.5
2023-04-18T23:25:37.903Z,70.5
2023-04-18T23:28:25.595Z,70.6
2023-04-18T23:31:13.536Z,70.8
2023-04-18T23:34:01.380Z,70.5
2023-04-18T23:36:49.120Z,70.6
2023-04-18T23:39:36.825Z,70.7
2023-04-18T23:42:24.656Z,70.8
2023-04-18T23:45:12.370Z,70.9
2023-04-18T23:48:00.436Z,71.1
2023-04-18T23:50:48.285Z,71.2
2023-04-18T23:53:35.936Z,71.1
2023-04-18T23:56:23.573Z,71.2
2023-04-18T23:59:11.376Z,71.1
